sensor_id;sensor_type;location;lat;lon;timestamp;temperature;humidity
54429;DHT22;40337;52.978;6.310;2022-12-18T00:00:27;-2.40;99.90
54429;DHT22;40337;52.978;6.310;2022-12-18T00:02:53;-2.50;99.90
54429;DHT22;40337;52.978;6.310;2022-12-18T00:05:18;-2.50;99.90
54429;DHT22;40337;52.978;6.310;2022-12-18T00:07:44;-2.50;99.90
54429;DHT22;40337;52.978;6.310;2022-12-18T00:10:09;-2.50;99.90
54429;DHT22;40337;52.978;6.310;2022-12-18T00:12:35;-2.50;99.90
54429;DHT22;40337;52.978;6.310;2022-12-18T00:15:00;-2.50;99.90
54429;DHT22;40337;52.978;6.310;2022-12-18T00:17:26;-2.60;99.90
54429;DHT22;40337;52.978;6.310;2022-12-18T00:19:51;-2.50;99.90
54429;DHT22;40337;52.978;6.310;2022-12-18T00:22:18;-2.60;99.90
54429;DHT22;40337;52.978;6.310;2022-12-18T00:24:44;-2.60;99.90
54429;DHT22;40337;52.978;6.310;2022-12-18T00:27:09;-2.60;99.90
54429;DHT22;40337;52.978;6.310;2022-12-18T00:29:35;-2.70;99.90
54429;DHT22;40337;52.978;6.310;2022-12-18T00:32:00;-2.70;99.90
54429;DHT22;40337;52.978;6.310;2022-12-18T00:34:26;-2.70;99.90
54429;DHT22;40337;52.978;6.310;2022-12-18T00:36:51;-2.60;99.90
54429;DHT22;40337;52.978;6.310;2022-12-18T00:39:17;-2.60;99.90
54429;DHT22;40337;52.978;6.310;2022-12-18T00:41:42;-2.60;99.90
54429;DHT22;40337;52.978;6.310;2022-12-18T00:44:26;-2.60;99.90
54429;DHT22;40337;52.978;6.310;2022-12-18T00:46:52;-2.60;99.90
54429;DHT22;40337;52.978;6.310;2022-12-18T00:49:19;-2.60;99.90
54429;DHT22;40337;52.978;6.310;2022-12-18T00:51:44;-2.60;99.90
54429;DHT22;40337;52.978;6.310;2022-12-18T00:54:10;-2.60;99.90
54429;DHT22;40337;52.978;6.310;2022-12-18T00:56:37;-2.70;99.90
54429;DHT22;40337;52.978;6.310;2022-12-18T00:59:03;-2.70;99.90
54429;DHT22;40337;52.978;6.310;2022-12-18T01:01:28;-2.70;99.90
54429;DHT22;40337;52.978;6.310;2022-12-18T01:03:54;-2.80;99.90
54429;DHT22;40337;52.978;6.310;2022-12-18T01:06:22;-2.80;99.90
54429;DHT22;40337;52.978;6.310;2022-12-18T01:08:48;-2.90;99.90
54429;DHT22;40337;52.978;6.310;2022-12-18T01:11:16;-2.90;99.90
54429;DHT22;40337;52.978;6.310;2022-12-18T01:13:43;-2.90;99.90
54429;DHT22;40337;52.978;6.310;2022-12-18T01:16:11;-2.90;99.90
54429;DHT22;40337;52.978;6.310;2022-12-18T01:18:37;-2.90;99.90
54429;DHT22;40337;52.978;6.310;2022-12-18T01:21:08;-3.00;99.90
54429;DHT22;40337;52.978;6.310;2022-12-18T01:23:34;-3.00;99.90
54429;DHT22;40337;52.978;6.310;2022-12-18T01:26:08;-3.00;99.90
54429;DHT22;40337;52.978;6.310;2022-12-18T01:28:34;-3.10;99.90
54429;DHT22;40337;52.978;6.310;2022-12-18T01:31:27;-3.10;99.90
54429;DHT22;40337;52.978;6.310;2022-12-18T01:33:53;-3.10;99.90
54429;DHT22;40337;52.978;6.310;2022-12-18T01:36:21;-3.10;99.90
54429;DHT22;40337;52.978;6.310;2022-12-18T01:38:48;-3.20;99.90
54429;DHT22;40337;52.978;6.310;2022-12-18T01:41:15;-3.10;99.90
54429;DHT22;40337;52.978;6.310;2022-12-18T01:43:56;-3.20;99.90
54429;DHT22;40337;52.978;6.310;2022-12-18T01:46:26;-3.20;99.90
54429;DHT22;40337;52.978;6.310;2022-12-18T01:48:57;-3.20;99.90
54429;DHT22;40337;52.978;6.310;2022-12-18T01:51:26;-3.20;99.90
54429;DHT22;40337;52.978;6.310;2022-12-18T01:53:52;-3.20;99.90
54429;DHT22;40337;52.978;6.310;2022-12-18T01:56:20;-3.30;99.90
54429;DHT22;40337;52.978;6.310;2022-12-18T01:58:59;-3.40;99.90
54429;DHT22;40337;52.978;6.310;2022-12-18T02:01:26;-3.40;99.90
54429;DHT22;40337;52.978;6.310;2022-12-18T02:03:52;-3.40;99.90
54429;DHT22;40337;52.978;6.310;2022-12-18T02:06:34;-3.50;99.90
54429;DHT22;40337;52.978;6.310;2022-12-18T02:09:11;-3.50;99.90
54429;DHT22;40337;52.978;6.310;2022-12-18T02:11:59;-3.60;99.90
54429;DHT22;40337;52.978;6.310;2022-12-18T02:17:23;-3.60;99.90
54429;DHT22;40337;52.978;6.310;2022-12-18T02:22:57;-3.60;99.90
54429;DHT22;40337;52.978;6.310;2022-12-18T02:28:26;-3.60;99.90
54429;DHT22;40337;52.978;6.310;2022-12-18T02:30:54;-3.60;99.90
54429;DHT22;40337;52.978;6.310;2022-12-18T02:33:22;-3.60;99.90
54429;DHT22;40337;52.978;6.310;2022-12-18T02:35:50;-3.60;99.90
54429;DHT22;40337;52.978;6.310;2022-12-18T02:38:17;-3.60;99.90
54429;DHT22;40337;52.978;6.310;2022-12-18T02:40:43;-3.60;99.90
54429;DHT22;40337;52.978;6.310;2022-12-18T02:43:12;-3.60;99.90
54429;DHT22;40337;52.978;6.310;2022-12-18T02:45:50;-3.70;99.90
54429;DHT22;40337;52.978;6.310;2022-12-18T02:48:19;-3.70;99.90
54429;DHT22;40337;52.978;6.310;2022-12-18T02:53:56;-3.80;99.90
54429;DHT22;40337;52.978;6.310;2022-12-18T02:56:29;-3.90;99.90
54429;DHT22;40337;52.978;6.310;2022-12-18T02:59:08;-3.90;99.90
54429;DHT22;40337;52.978;6.310;2022-12-18T03:01:58;-3.90;99.90
54429;DHT22;40337;52.978;6.310;2022-12-18T03:04:30;-4.00;99.90
54429;DHT22;40337;52.978;6.310;2022-12-18T03:07:05;-4.00;99.90
54429;DHT22;40337;52.978;6.310;2022-12-18T03:09:36;-4.00;99.90
54429;DHT22;40337;52.978;6.310;2022-12-18T03:12:33;-4.00;99.90
54429;DHT22;40337;52.978;6.310;2022-12-18T03:15:11;-4.00;99.90
54429;DHT22;40337;52.978;6.310;2022-12-18T03:17:41;-4.00;99.90
54429;DHT22;40337;52.978;6.310;2022-12-18T03:20:13;-4.10;99.90
54429;DHT22;40337;52.978;6.310;2022-12-18T03:22:41;-4.10;99.90
54429;DHT22;40337;52.978;6.310;2022-12-18T03:25:10;-4.10;99.90
54429;DHT22;40337;52.978;6.310;2022-12-18T03:27:42;-4.10;99.90
54429;DHT22;40337;52.978;6.310;2022-12-18T03:30:10;-4.10;99.90
54429;DHT22;40337;52.978;6.310;2022-12-18T03:32:48;-4.10;99.90
54429;DHT22;40337;52.978;6.310;2022-12-18T03:35:21;-4.20;99.90
54429;DHT22;40337;52.978;6.310;2022-12-18T03:37:49;-4.20;99.90
54429;DHT22;40337;52.978;6.310;2022-12-18T03:40:15;-4.20;99.90
54429;DHT22;40337;52.978;6.310;2022-12-18T03:42:51;-4.20;99.90
54429;DHT22;40337;52.978;6.310;2022-12-18T03:47:59;-4.30;99.90
54429;DHT22;40337;52.978;6.310;2022-12-18T03:50:34;-4.30;99.90
54429;DHT22;40337;52.978;6.310;2022-12-18T03:55:51;-4.40;99.90
54429;DHT22;40337;52.978;6.310;2022-12-18T03:58:20;-4.40;99.90
54429;DHT22;40337;52.978;6.310;2022-12-18T04:00:49;-4.40;99.90
54429;DHT22;40337;52.978;6.310;2022-12-18T04:03:16;-4.50;99.90
54429;DHT22;40337;52.978;6.310;2022-12-18T04:05:43;-4.50;99.90
54429;DHT22;40337;52.978;6.310;2022-12-18T04:08:10;-4.60;99.90
54429;DHT22;40337;52.978;6.310;2022-12-18T04:10:36;-4.60;99.90
54429;DHT22;40337;52.978;6.310;2022-12-18T04:13:02;-4.60;99.90
54429;DHT22;40337;52.978;6.310;2022-12-18T04:15:27;-4.60;99.90
54429;DHT22;40337;52.978;6.310;2022-12-18T04:17:53;-4.60;99.90
54429;DHT22;40337;52.978;6.310;2022-12-18T04:20:19;-4.70;99.90
54429;DHT22;40337;52.978;6.310;2022-12-18T04:22:44;-4.70;99.90
54429;DHT22;40337;52.978;6.310;2022-12-18T04:25:11;-4.70;99.90
54429;DHT22;40337;52.978;6.310;2022-12-18T04:27:37;-4.80;99.90
54429;DHT22;40337;52.978;6.310;2022-12-18T04:30:03;-4.80;99.90
54429;DHT22;40337;52.978;6.310;2022-12-18T04:32:29;-4.80;99.90
54429;DHT22;40337;52.978;6.310;2022-12-18T04:34:54;-4.80;99.90
54429;DHT22;40337;52.978;6.310;2022-12-18T04:37:20;-4.80;99.90
54429;DHT22;40337;52.978;6.310;2022-12-18T04:39:45;-4.80;99.90
54429;DHT22;40337;52.978;6.310;2022-12-18T04:42:11;-4.90;99.90
54429;DHT22;40337;52.978;6.310;2022-12-18T04:44:36;-4.80;99.90
54429;DHT22;40337;52.978;6.310;2022-12-18T04:47:02;-4.80;99.90
54429;DHT22;40337;52.978;6.310;2022-12-18T04:49:28;-4.80;99.90
54429;DHT22;40337;52.978;6.310;2022-12-18T04:51:53;-4.90;99.90
54429;DHT22;40337;52.978;6.310;2022-12-18T04:54:19;-4.80;99.90
54429;DHT22;40337;52.978;6.310;2022-12-18T04:56:44;-4.90;99.90
54429;DHT22;40337;52.978;6.310;2022-12-18T04:59:10;-4.90;99.90
54429;DHT22;40337;52.978;6.310;2022-12-18T05:01:35;-4.90;99.90
54429;DHT22;40337;52.978;6.310;2022-12-18T05:04:02;-5.00;99.90
54429;DHT22;40337;52.978;6.310;2022-12-18T05:06:27;-5.00;99.90
54429;DHT22;40337;52.978;6.310;2022-12-18T05:08:53;-5.00;99.90
54429;DHT22;40337;52.978;6.310;2022-12-18T05:11:18;-5.00;99.90
54429;DHT22;40337;52.978;6.310;2022-12-18T05:13:45;-5.10;99.90
54429;DHT22;40337;52.978;6.310;2022-12-18T05:16:11;-5.10;99.90
54429;DHT22;40337;52.978;6.310;2022-12-18T05:18:37;-5.10;99.90
54429;DHT22;40337;52.978;6.310;2022-12-18T05:21:03;-5.10;99.90
54429;DHT22;40337;52.978;6.310;2022-12-18T05:23:29;-5.10;99.90
54429;DHT22;40337;52.978;6.310;2022-12-18T05:26:00;-5.10;99.90
54429;DHT22;40337;52.978;6.310;2022-12-18T05:28:28;-5.10;99.90
54429;DHT22;40337;52.978;6.310;2022-12-18T05:30:57;-5.10;99.90
54429;DHT22;40337;52.978;6.310;2022-12-18T05:33:24;-5.10;99.90
54429;DHT22;40337;52.978;6.310;2022-12-18T05:35:52;-5.10;99.90
54429;DHT22;40337;52.978;6.310;2022-12-18T05:38:19;-5.10;99.90
54429;DHT22;40337;52.978;6.310;2022-12-18T05:40:45;-5.20;99.90
54429;DHT22;40337;52.978;6.310;2022-12-18T05:43:10;-5.20;99.90
54429;DHT22;40337;52.978;6.310;2022-12-18T05:45:37;-5.30;99.90
54429;DHT22;40337;52.978;6.310;2022-12-18T05:48:03;-5.40;99.90
54429;DHT22;40337;52.978;6.310;2022-12-18T05:50:29;-5.50;99.90
54429;DHT22;40337;52.978;6.310;2022-12-18T05:52:55;-5.60;99.90
54429;DHT22;40337;52.978;6.310;2022-12-18T05:55:20;-5.60;99.90
54429;DHT22;40337;52.978;6.310;2022-12-18T05:57:46;-5.60;99.90
54429;DHT22;40337;52.978;6.310;2022-12-18T06:00:12;-5.50;99.90
54429;DHT22;40337;52.978;6.310;2022-12-18T06:02:38;-5.50;99.90
54429;DHT22;40337;52.978;6.310;2022-12-18T06:05:04;-5.40;99.90
54429;DHT22;40337;52.978;6.310;2022-12-18T06:07:30;-5.40;99.90
54429;DHT22;40337;52.978;6.310;2022-12-18T06:09:55;-5.40;99.90
54429;DHT22;40337;52.978;6.310;2022-12-18T06:12:21;-5.40;99.90
54429;DHT22;40337;52.978;6.310;2022-12-18T06:14:46;-5.30;99.90
54429;DHT22;40337;52.978;6.310;2022-12-18T06:17:12;-5.30;99.90
54429;DHT22;40337;52.978;6.310;2022-12-18T06:19:37;-5.30;99.90
54429;DHT22;40337;52.978;6.310;2022-12-18T06:22:03;-5.40;99.90
54429;DHT22;40337;52.978;6.310;2022-12-18T06:24:29;-5.40;99.90
54429;DHT22;40337;52.978;6.310;2022-12-18T06:26:55;-5.40;99.90
54429;DHT22;40337;52.978;6.310;2022-12-18T06:29:21;-5.40;99.90
54429;DHT22;40337;52.978;6.310;2022-12-18T06:31:46;-5.40;99.90
54429;DHT22;40337;52.978;6.310;2022-12-18T06:34:12;-5.40;99.90
54429;DHT22;40337;52.978;6.310;2022-12-18T06:36:38;-5.40;99.90
54429;DHT22;40337;52.978;6.310;2022-12-18T06:39:03;-5.40;99.90
54429;DHT22;40337;52.978;6.310;2022-12-18T06:41:43;-5.50;99.90
54429;DHT22;40337;52.978;6.310;2022-12-18T06:44:08;-5.40;99.90
54429;DHT22;40337;52.978;6.310;2022-12-18T06:46:34;-5.50;99.90
54429;DHT22;40337;52.978;6.310;2022-12-18T06:48:59;-5.50;99.90
54429;DHT22;40337;52.978;6.310;2022-12-18T06:51:26;-5.50;99.90
54429;DHT22;40337;52.978;6.310;2022-12-18T06:53:52;-5.50;99.90
54429;DHT22;40337;52.978;6.310;2022-12-18T06:56:17;-5.50;99.90
54429;DHT22;40337;52.978;6.310;2022-12-18T06:58:43;-5.50;99.90
54429;DHT22;40337;52.978;6.310;2022-12-18T07:01:11;-5.40;99.90
54429;DHT22;40337;52.978;6.310;2022-12-18T07:03:40;-5.50;99.90
54429;DHT22;40337;52.978;6.310;2022-12-18T07:06:06;-5.40;99.90
54429;DHT22;40337;52.978;6.310;2022-12-18T07:08:37;-5.40;99.90
54429;DHT22;40337;52.978;6.310;2022-12-18T07:11:03;-5.40;99.90
54429;DHT22;40337;52.978;6.310;2022-12-18T07:13:29;-5.40;99.90
54429;DHT22;40337;52.978;6.310;2022-12-18T07:15:54;-5.40;99.90
54429;DHT22;40337;52.978;6.310;2022-12-18T07:18:20;-5.30;99.90
54429;DHT22;40337;52.978;6.310;2022-12-18T07:20:45;-5.30;99.90
54429;DHT22;40337;52.978;6.310;2022-12-18T07:23:11;-5.20;99.90
54429;DHT22;40337;52.978;6.310;2022-12-18T07:25:37;-5.30;99.90
54429;DHT22;40337;52.978;6.310;2022-12-18T07:28:03;-5.20;99.90
54429;DHT22;40337;52.978;6.310;2022-12-18T07:30:29;-5.20;99.90
54429;DHT22;40337;52.978;6.310;2022-12-18T07:32:54;-5.20;99.90
54429;DHT22;40337;52.978;6.310;2022-12-18T07:35:20;-5.20;99.90
54429;DHT22;40337;52.978;6.310;2022-12-18T07:37:45;-5.20;99.90
54429;DHT22;40337;52.978;6.310;2022-12-18T07:40:11;-5.20;99.90
54429;DHT22;40337;52.978;6.310;2022-12-18T07:42:37;-5.20;99.90
54429;DHT22;40337;52.978;6.310;2022-12-18T07:45:03;-5.10;99.90
54429;DHT22;40337;52.978;6.310;2022-12-18T07:47:29;-5.10;99.90
54429;DHT22;40337;52.978;6.310;2022-12-18T07:49:57;-5.10;99.90
54429;DHT22;40337;52.978;6.310;2022-12-18T07:52:23;-5.00;99.90
54429;DHT22;40337;52.978;6.310;2022-12-18T07:54:49;-5.00;99.90
54429;DHT22;40337;52.978;6.310;2022-12-18T07:57:16;-5.00;99.90
54429;DHT22;40337;52.978;6.310;2022-12-18T07:59:42;-5.00;99.90
54429;DHT22;40337;52.978;6.310;2022-12-18T08:02:07;-5.00;99.90
54429;DHT22;40337;52.978;6.310;2022-12-18T08:04:33;-5.00;99.90
54429;DHT22;40337;52.978;6.310;2022-12-18T08:07:01;-4.90;99.90
54429;DHT22;40337;52.978;6.310;2022-12-18T08:09:27;-4.90;99.90
54429;DHT22;40337;52.978;6.310;2022-12-18T08:11:52;-4.80;99.90
54429;DHT22;40337;52.978;6.310;2022-12-18T08:14:18;-4.80;99.90
54429;DHT22;40337;52.978;6.310;2022-12-18T08:16:44;-4.80;99.90
54429;DHT22;40337;52.978;6.310;2022-12-18T08:19:09;-4.70;99.90
54429;DHT22;40337;52.978;6.310;2022-12-18T08:21:35;-4.70;99.90
54429;DHT22;40337;52.978;6.310;2022-12-18T08:24:01;-4.60;99.90
54429;DHT22;40337;52.978;6.310;2022-12-18T08:26:28;-4.60;99.90
54429;DHT22;40337;52.978;6.310;2022-12-18T08:28:55;-4.50;99.90
54429;DHT22;40337;52.978;6.310;2022-12-18T08:31:22;-4.50;99.90
54429;DHT22;40337;52.978;6.310;2022-12-18T08:33:52;-4.40;99.90
54429;DHT22;40337;52.978;6.310;2022-12-18T08:36:18;-4.40;99.90
54429;DHT22;40337;52.978;6.310;2022-12-18T08:38:45;-4.30;99.90
54429;DHT22;40337;52.978;6.310;2022-12-18T08:41:14;-4.20;99.90
54429;DHT22;40337;52.978;6.310;2022-12-18T08:43:40;-4.20;99.90
54429;DHT22;40337;52.978;6.310;2022-12-18T08:46:26;-4.10;99.90
54429;DHT22;40337;52.978;6.310;2022-12-18T08:48:53;-4.10;99.90
54429;DHT22;40337;52.978;6.310;2022-12-18T08:51:20;-4.00;99.90
54429;DHT22;40337;52.978;6.310;2022-12-18T08:53:45;-3.90;99.90
54429;DHT22;40337;52.978;6.310;2022-12-18T08:56:12;-3.80;99.90
54429;DHT22;40337;52.978;6.310;2022-12-18T08:58:38;-3.80;99.90
54429;DHT22;40337;52.978;6.310;2022-12-18T09:01:06;-3.80;99.90
54429;DHT22;40337;52.978;6.310;2022-12-18T09:03:32;-3.70;99.90
54429;DHT22;40337;52.978;6.310;2022-12-18T09:05:58;-3.70;99.90
54429;DHT22;40337;52.978;6.310;2022-12-18T09:08:23;-3.60;99.90
54429;DHT22;40337;52.978;6.310;2022-12-18T09:10:50;-3.50;99.90
54429;DHT22;40337;52.978;6.310;2022-12-18T09:13:16;-3.60;99.90
54429;DHT22;40337;52.978;6.310;2022-12-18T09:15:50;-3.50;99.90
54429;DHT22;40337;52.978;6.310;2022-12-18T09:18:18;-3.50;99.90
54429;DHT22;40337;52.978;6.310;2022-12-18T09:20:44;-3.50;99.90
54429;DHT22;40337;52.978;6.310;2022-12-18T09:23:10;-3.40;99.90
54429;DHT22;40337;52.978;6.310;2022-12-18T09:25:36;-3.40;99.90
54429;DHT22;40337;52.978;6.310;2022-12-18T09:28:14;-3.40;99.90
54429;DHT22;40337;52.978;6.310;2022-12-18T09:30:45;-3.30;99.90
54429;DHT22;40337;52.978;6.310;2022-12-18T09:33:11;-3.30;99.90
54429;DHT22;40337;52.978;6.310;2022-12-18T09:35:38;-3.20;99.90
54429;DHT22;40337;52.978;6.310;2022-12-18T09:38:04;-3.10;99.90
54429;DHT22;40337;52.978;6.310;2022-12-18T09:40:35;-3.10;99.90
54429;DHT22;40337;52.978;6.310;2022-12-18T09:43:04;-3.00;99.90
54429;DHT22;40337;52.978;6.310;2022-12-18T09:45:39;-2.90;99.90
54429;DHT22;40337;52.978;6.310;2022-12-18T09:48:08;-2.80;99.90
54429;DHT22;40337;52.978;6.310;2022-12-18T09:50:37;-2.70;99.90
54429;DHT22;40337;52.978;6.310;2022-12-18T09:53:15;-2.60;99.90
54429;DHT22;40337;52.978;6.310;2022-12-18T09:55:44;-2.50;99.90
54429;DHT22;40337;52.978;6.310;2022-12-18T09:58:34;-2.50;99.90
54429;DHT22;40337;52.978;6.310;2022-12-18T10:01:02;-2.50;99.90
54429;DHT22;40337;52.978;6.310;2022-12-18T10:03:33;-2.50;99.90
54429;DHT22;40337;52.978;6.310;2022-12-18T10:06:11;-2.50;99.90
54429;DHT22;40337;52.978;6.310;2022-12-18T10:09:19;-2.50;99.90
54429;DHT22;40337;52.978;6.310;2022-12-18T10:12:04;-2.30;99.90
54429;DHT22;40337;52.978;6.310;2022-12-18T10:20:12;-2.40;99.90
54429;DHT22;40337;52.978;6.310;2022-12-18T10:25:23;-2.50;99.90
54429;DHT22;40337;52.978;6.310;2022-12-18T10:28:00;-2.40;99.90
54429;DHT22;40337;52.978;6.310;2022-12-18T10:30:29;-2.40;99.90
54429;DHT22;40337;52.978;6.310;2022-12-18T10:33:00;-2.40;99.90
54429;DHT22;40337;52.978;6.310;2022-12-18T10:35:27;-2.30;99.90
54429;DHT22;40337;52.978;6.310;2022-12-18T10:38:05;-2.30;99.90
54429;DHT22;40337;52.978;6.310;2022-12-18T10:40:31;-2.20;99.90
54429;DHT22;40337;52.978;6.310;2022-12-18T10:48:27;-2.10;99.90
54429;DHT22;40337;52.978;6.310;2022-12-18T10:50:53;-2.10;99.90
54429;DHT22;40337;52.978;6.310;2022-12-18T10:53:28;-2.10;99.90
54429;DHT22;40337;52.978;6.310;2022-12-18T10:55:56;-2.00;99.90
54429;DHT22;40337;52.978;6.310;2022-12-18T10:58:34;-2.00;99.90
54429;DHT22;40337;52.978;6.310;2022-12-18T11:01:12;-1.90;99.90
54429;DHT22;40337;52.978;6.310;2022-12-18T11:03:41;-1.90;99.90
54429;DHT22;40337;52.978;6.310;2022-12-18T11:06:14;-1.90;99.90
54429;DHT22;40337;52.978;6.310;2022-12-18T11:08:41;-1.80;99.90
54429;DHT22;40337;52.978;6.310;2022-12-18T11:11:19;-1.80;99.90
54429;DHT22;40337;52.978;6.310;2022-12-18T11:16:27;-1.70;99.90
54429;DHT22;40337;52.978;6.310;2022-12-18T11:18:53;-1.60;99.90
54429;DHT22;40337;52.978;6.310;2022-12-18T11:21:19;-1.60;99.90
54429;DHT22;40337;52.978;6.310;2022-12-18T11:23:53;-1.50;99.90
54429;DHT22;40337;52.978;6.310;2022-12-18T11:26:19;-1.50;99.90
54429;DHT22;40337;52.978;6.310;2022-12-18T11:28:50;-1.50;99.90
54429;DHT22;40337;52.978;6.310;2022-12-18T11:31:18;-1.40;99.90
54429;DHT22;40337;52.978;6.310;2022-12-18T11:36:40;-1.40;99.90
54429;DHT22;40337;52.978;6.310;2022-12-18T11:39:30;-1.40;99.90
54429;DHT22;40337;52.978;6.310;2022-12-18T11:42:40;-1.40;99.90
54429;DHT22;40337;52.978;6.310;2022-12-18T11:52:55;-1.30;99.90
54429;DHT22;40337;52.978;6.310;2022-12-18T11:58:22;-1.20;99.90
54429;DHT22;40337;52.978;6.310;2022-12-18T12:04:05;-1.20;99.90
54429;DHT22;40337;52.978;6.310;2022-12-18T12:06:58;-1.20;99.90
54429;DHT22;40337;52.978;6.310;2022-12-18T12:09:58;-1.10;99.90
54429;DHT22;40337;52.978;6.310;2022-12-18T12:15:29;-1.10;99.90
54429;DHT22;40337;52.978;6.310;2022-12-18T12:26:18;-1.00;99.90
54429;DHT22;40337;52.978;6.310;2022-12-18T12:33:58;-0.90;99.90
54429;DHT22;40337;52.978;6.310;2022-12-18T12:39:08;-0.80;99.90
54429;DHT22;40337;52.978;6.310;2022-12-18T12:41:37;-0.80;99.90
54429;DHT22;40337;52.978;6.310;2022-12-18T12:44:26;-0.80;99.90
54429;DHT22;40337;52.978;6.310;2022-12-18T12:46:59;-0.70;99.90
54429;DHT22;40337;52.978;6.310;2022-12-18T12:49:27;-0.70;99.90
54429;DHT22;40337;52.978;6.310;2022-12-18T12:52:10;-0.60;99.90
54429;DHT22;40337;52.978;6.310;2022-12-18T12:54:37;-0.60;99.90
54429;DHT22;40337;52.978;6.310;2022-12-18T13:02:20;-0.60;99.90
54429;DHT22;40337;52.978;6.310;2022-12-18T13:07:28;-0.60;99.90
54429;DHT22;40337;52.978;6.310;2022-12-18T13:15:32;-0.50;99.90
54429;DHT22;40337;52.978;6.310;2022-12-18T13:18:17;-0.50;99.90
54429;DHT22;40337;52.978;6.310;2022-12-18T13:20:44;-0.40;99.90
54429;DHT22;40337;52.978;6.310;2022-12-18T13:23:36;-0.60;99.90
54429;DHT22;40337;52.978;6.310;2022-12-18T13:34:20;-0.50;99.90
54429;DHT22;40337;52.978;6.310;2022-12-18T13:36:47;-0.50;99.90
54429;DHT22;40337;52.978;6.310;2022-12-18T13:41:45;-0.50;99.90
54429;DHT22;40337;52.978;6.310;2022-12-18T13:44:31;-0.50;99.90
54429;DHT22;40337;52.978;6.310;2022-12-18T13:46:58;-0.50;99.90
54429;DHT22;40337;52.978;6.310;2022-12-18T13:52:00;-0.50;99.90
54429;DHT22;40337;52.978;6.310;2022-12-18T13:54:41;-0.50;99.90
54429;DHT22;40337;52.978;6.310;2022-12-18T13:57:28;-0.50;99.90
54429;DHT22;40337;52.978;6.310;2022-12-18T13:59:54;-0.50;99.90
54429;DHT22;40337;52.978;6.310;2022-12-18T14:02:26;-0.50;99.90
54429;DHT22;40337;52.978;6.310;2022-12-18T14:04:52;-0.50;99.90
54429;DHT22;40337;52.978;6.310;2022-12-18T14:07:21;-0.50;99.90
54429;DHT22;40337;52.978;6.310;2022-12-18T14:09:50;-0.40;99.90
54429;DHT22;40337;52.978;6.310;2022-12-18T14:12:29;-0.50;99.90
54429;DHT22;40337;52.978;6.310;2022-12-18T14:15:29;-0.50;99.90
54429;DHT22;40337;52.978;6.310;2022-12-18T14:18:01;-0.50;99.90
54429;DHT22;40337;52.978;6.310;2022-12-18T14:20:30;-0.60;99.90
54429;DHT22;40337;52.978;6.310;2022-12-18T14:22:57;-0.60;99.90
54429;DHT22;40337;52.978;6.310;2022-12-18T14:25:28;-0.60;99.90
54429;DHT22;40337;52.978;6.310;2022-12-18T14:30:35;-0.60;99.90
54429;DHT22;40337;52.978;6.310;2022-12-18T14:33:06;-0.60;99.90
54429;DHT22;40337;52.978;6.310;2022-12-18T14:35:39;-0.60;99.90
54429;DHT22;40337;52.978;6.310;2022-12-18T14:38:26;-0.70;99.90
54429;DHT22;40337;52.978;6.310;2022-12-18T14:43:28;-0.70;99.90
54429;DHT22;40337;52.978;6.310;2022-12-18T14:45:54;-0.70;99.90
54429;DHT22;40337;52.978;6.310;2022-12-18T14:48:37;-0.80;99.90
54429;DHT22;40337;52.978;6.310;2022-12-18T14:53:41;-0.80;99.90
54429;DHT22;40337;52.978;6.310;2022-12-18T14:56:21;-0.90;99.90
54429;DHT22;40337;52.978;6.310;2022-12-18T14:58:53;-0.90;99.90
54429;DHT22;40337;52.978;6.310;2022-12-18T15:01:21;-0.90;99.90
54429;DHT22;40337;52.978;6.310;2022-12-18T15:03:48;-0.90;99.90
54429;DHT22;40337;52.978;6.310;2022-12-18T15:06:34;-0.90;99.90
54429;DHT22;40337;52.978;6.310;2022-12-18T15:09:04;-0.90;99.90
54429;DHT22;40337;52.978;6.310;2022-12-18T15:11:42;-0.90;99.90
54429;DHT22;40337;52.978;6.310;2022-12-18T15:14:35;-0.90;99.90
54429;DHT22;40337;52.978;6.310;2022-12-18T15:17:06;-0.90;99.90
54429;DHT22;40337;52.978;6.310;2022-12-18T15:19:40;-0.90;99.90
54429;DHT22;40337;52.978;6.310;2022-12-18T15:22:21;-0.90;99.90
54429;DHT22;40337;52.978;6.310;2022-12-18T15:24:49;-1.00;99.90
54429;DHT22;40337;52.978;6.310;2022-12-18T15:27:21;-1.00;99.90
54429;DHT22;40337;52.978;6.310;2022-12-18T15:32:41;-0.90;99.90
54429;DHT22;40337;52.978;6.310;2022-12-18T15:35:19;-1.00;99.90
54429;DHT22;40337;52.978;6.310;2022-12-18T15:37:45;-1.00;99.90
54429;DHT22;40337;52.978;6.310;2022-12-18T15:40:17;-0.90;99.90
54429;DHT22;40337;52.978;6.310;2022-12-18T15:42:43;-0.90;99.90
54429;DHT22;40337;52.978;6.310;2022-12-18T15:45:27;-1.00;99.90
54429;DHT22;40337;52.978;6.310;2022-12-18T15:47:53;-0.90;99.90
54429;DHT22;40337;52.978;6.310;2022-12-18T15:50:18;-0.90;99.90
54429;DHT22;40337;52.978;6.310;2022-12-18T15:52:46;-0.90;99.90
54429;DHT22;40337;52.978;6.310;2022-12-18T15:55:14;-0.90;99.90
54429;DHT22;40337;52.978;6.310;2022-12-18T15:57:58;-0.80;99.90
54429;DHT22;40337;52.978;6.310;2022-12-18T16:00:24;-0.90;99.90
54429;DHT22;40337;52.978;6.310;2022-12-18T16:02:50;-0.70;99.90
54429;DHT22;40337;52.978;6.310;2022-12-18T16:05:16;-0.90;99.90
54429;DHT22;40337;52.978;6.310;2022-12-18T16:07:43;-0.90;99.90
54429;DHT22;40337;52.978;6.310;2022-12-18T16:10:08;-0.90;99.90
54429;DHT22;40337;52.978;6.310;2022-12-18T16:12:34;-0.90;99.90
54429;DHT22;40337;52.978;6.310;2022-12-18T16:15:01;-0.90;99.90
54429;DHT22;40337;52.978;6.310;2022-12-18T16:17:26;-0.90;99.90
54429;DHT22;40337;52.978;6.310;2022-12-18T16:19:52;-0.90;99.90
54429;DHT22;40337;52.978;6.310;2022-12-18T16:24:45;-0.90;99.90
54429;DHT22;40337;52.978;6.310;2022-12-18T16:27:11;-0.90;99.90
54429;DHT22;40337;52.978;6.310;2022-12-18T16:29:36;-0.80;99.90
54429;DHT22;40337;52.978;6.310;2022-12-18T16:32:02;-0.80;99.90
54429;DHT22;40337;52.978;6.310;2022-12-18T16:34:29;-0.80;99.90
54429;DHT22;40337;52.978;6.310;2022-12-18T16:37:01;-0.80;99.90
54429;DHT22;40337;52.978;6.310;2022-12-18T16:39:27;-0.80;99.90
54429;DHT22;40337;52.978;6.310;2022-12-18T16:41:53;-0.80;99.90
54429;DHT22;40337;52.978;6.310;2022-12-18T16:44:18;-0.80;99.90
54429;DHT22;40337;52.978;6.310;2022-12-18T16:46:44;-0.80;99.90
54429;DHT22;40337;52.978;6.310;2022-12-18T16:49:17;-0.80;99.90
54429;DHT22;40337;52.978;6.310;2022-12-18T16:51:45;-0.70;99.90
54429;DHT22;40337;52.978;6.310;2022-12-18T16:54:11;-0.80;99.90
54429;DHT22;40337;52.978;6.310;2022-12-18T16:56:36;-0.80;99.90
54429;DHT22;40337;52.978;6.310;2022-12-18T16:59:03;-0.80;99.90
54429;DHT22;40337;52.978;6.310;2022-12-18T17:01:30;-0.70;99.90
54429;DHT22;40337;52.978;6.310;2022-12-18T17:03:59;-0.70;99.90
54429;DHT22;40337;52.978;6.310;2022-12-18T17:06:26;-0.70;99.90
54429;DHT22;40337;52.978;6.310;2022-12-18T17:08:56;-0.70;99.90
54429;DHT22;40337;52.978;6.310;2022-12-18T17:11:30;-0.70;99.90
54429;DHT22;40337;52.978;6.310;2022-12-18T17:13:56;-0.70;99.90
54429;DHT22;40337;52.978;6.310;2022-12-18T17:16:22;-0.70;99.90
54429;DHT22;40337;52.978;6.310;2022-12-18T17:18:49;-0.70;99.90
54429;DHT22;40337;52.978;6.310;2022-12-18T17:21:15;-0.80;99.90
54429;DHT22;40337;52.978;6.310;2022-12-18T17:23:41;-0.70;99.90
54429;DHT22;40337;52.978;6.310;2022-12-18T17:26:08;-0.70;99.90
54429;DHT22;40337;52.978;6.310;2022-12-18T17:28:35;-0.70;99.90
54429;DHT22;40337;52.978;6.310;2022-12-18T17:31:02;-0.70;99.90
54429;DHT22;40337;52.978;6.310;2022-12-18T17:33:34;-0.70;99.90